sensor_id;sensor_type;location;lat;lon;timestamp;pressure;altitude;pressure_sealevel;temperature;humidity
21623;BME280;10973;46.706;12.340;2023-04-20T00:00:32;86794.28;;;9.21;52.90
21623;BME280;10973;46.706;12.340;2023-04-20T00:03:00;86798.00;;;9.20;53.07
21623;BME280;10973;46.706;12.340;2023-04-20T00:05:28;86792.00;;;9.09;53.31
21623;BME280;10973;46.706;12.340;2023-04-20T00:07:55;86794.66;;;9.12;53.02
21623;BME280;10973;46.706;12.340;2023-04-20T00:10:22;86802.53;;;8.98;53.72
21623;BME280;10973;46.706;12.340;2023-04-20T00:12:50;86793.16;;;9.01;53.65
21623;BME280;10973;46.706;12.340;2023-04-20T00:15:18;86799.16;;;9.01;53.68
21623;BME280;10973;46.706;12.340;2023-04-20T00:17:45;86795.41;;;8.99;53.97
21623;BME280;10973;46.706;12.340;2023-04-20T00:20:13;86791.25;;;8.94;53.92
21623;BME280;10973;46.706;12.340;2023-04-20T00:22:40;86786.00;;;8.91;54.25
21623;BME280;10973;46.706;12.340;2023-04-20T00:25:08;86786.75;;;8.98;54.07
21623;BME280;10973;46.706;12.340;2023-04-20T00:27:36;86784.13;;;8.91;54.14
21623;BME280;10973;46.706;12.340;2023-04-20T00:30:04;86783.38;;;8.98;53.86
21623;BME280;10973;46.706;12.340;2023-04-20T00:32:31;86774.38;;;8.99;53.84
21623;BME280;10973;46.706;12.340;2023-04-20T00:34:59;86778.50;;;9.07;53.58
21623;BME280;10973;46.706;12.340;2023-04-20T00:37:26;86768.38;;;8.98;53.96
21623;BME280;10973;46.706;12.340;2023-04-20T00:39:54;86766.09;;;9.00;53.89
21623;BME280;10973;46.706;12.340;2023-04-20T00:42:22;86756.34;;;9.01;53.79
21623;BME280;10973;46.706;12.340;2023-04-20T00:44:49;86752.97;;;9.00;54.00
21623;BME280;10973;46.706;12.340;2023-04-20T00:47:16;86755.22;;;9.02;54.10
21623;BME280;10973;46.706;12.340;2023-04-20T00:49:43;86753.72;;;9.04;53.96
21623;BME280;10973;46.706;12.340;2023-04-20T00:52:11;86755.22;;;9.05;53.95
21623;BME280;10973;46.706;12.340;2023-04-20T00:54:38;86751.84;;;9.05;54.00
21623;BME280;10973;46.706;12.340;2023-04-20T00:57:05;86746.97;;;9.07;53.91
21623;BME280;10973;46.706;12.340;2023-04-20T00:59:33;86746.19;;;9.06;53.96
21623;BME280;10973;46.706;12.340;2023-04-20T01:02:00;86741.72;;;9.03;54.24
21623;BME280;10973;46.706;12.340;2023-04-20T01:04:28;86734.56;;;8.93;54.52
21623;BME280;10973;46.706;12.340;2023-04-20T01:06:56;86739.47;;;8.95;54.30
21623;BME280;10973;46.706;12.340;2023-04-20T01:09:23;86734.59;;;8.97;54.48
21623;BME280;10973;46.706;12.340;2023-04-20T01:11:50;86732.69;;;8.94;54.50
21623;BME280;10973;46.706;12.340;2023-04-20T01:14:18;86735.34;;;8.90;54.73
21623;BME280;10973;46.706;12.340;2023-04-20T01:16:45;86742.47;;;8.93;54.78
21623;BME280;10973;46.706;12.340;2023-04-20T01:19:13;86731.94;;;8.93;54.69
21623;BME280;10973;46.706;12.340;2023-04-20T01:21:40;86735.69;;;8.96;54.86
21623;BME280;10973;46.706;12.340;2023-04-20T01:24:07;86734.94;;;8.95;54.96
21623;BME280;10973;46.706;12.340;2023-04-20T01:26:34;86732.31;;;8.95;55.15
21623;BME280;10973;46.706;12.340;2023-04-20T01:29:02;86726.31;;;8.98;54.93
21623;BME280;10973;46.706;12.340;2023-04-20T01:31:31;86732.31;;;8.95;55.11
21623;BME280;10973;46.706;12.340;2023-04-20T01:33:58;86733.44;;;8.87;55.21
21623;BME280;10973;46.706;12.340;2023-04-20T01:36:26;86728.19;;;8.91;55.44
21623;BME280;10973;46.706;12.340;2023-04-20T01:38:55;86734.97;;;8.92;55.49
21623;BME280;10973;46.706;12.340;2023-04-20T01:41:22;86725.94;;;8.89;55.74
21623;BME280;10973;46.706;12.340;2023-04-20T01:43:49;86726.31;;;8.88;55.62
21623;BME280;10973;46.706;12.340;2023-04-20T01:46:17;86725.19;;;8.85;55.71
21623;BME280;10973;46.706;12.340;2023-04-20T01:48:44;86716.94;;;8.80;55.64
21623;BME280;10973;46.706;12.340;2023-04-20T01:51:11;86722.94;;;8.77;55.42
21623;BME280;10973;46.706;12.340;2023-04-20T01:53:38;86714.66;;;8.75;55.48
21623;BME280;10973;46.706;12.340;2023-04-20T01:56:09;86724.44;;;8.81;55.39
21623;BME280;10973;46.706;12.340;2023-04-20T01:58:37;86720.31;;;8.84;55.60
21623;BME280;10973;46.706;12.340;2023-04-20T02:01:04;86718.06;;;8.82;55.69
21623;BME280;10973;46.706;12.340;2023-04-20T02:03:31;86716.56;;;8.81;55.94
21623;BME280;10973;46.706;12.340;2023-04-20T02:05:59;86713.94;;;8.78;55.76
21623;BME280;10973;46.706;12.340;2023-04-20T02:08:26;86715.44;;;8.79;55.69
21623;BME280;10973;46.706;12.340;2023-04-20T02:10:54;86716.56;;;8.78;55.78
21623;BME280;10973;46.706;12.340;2023-04-20T02:13:21;86719.56;;;8.73;55.86
21623;BME280;10973;46.706;12.340;2023-04-20T02:15:48;86713.16;;;8.70;55.91
21623;BME280;10973;46.706;12.340;2023-04-20T02:18:15;86713.19;;;8.67;55.76
21623;BME280;10973;46.706;12.340;2023-04-20T02:20:44;86715.78;;;8.70;56.04
21623;BME280;10973;46.706;12.340;2023-04-20T02:23:11;86712.44;;;8.70;56.19
21623;BME280;10973;46.706;12.340;2023-04-20T02:25:38;86706.81;;;8.68;56.29
21623;BME280;10973;46.706;12.340;2023-04-20T02:28:06;86704.91;;;8.68;56.28
21623;BME280;10973;46.706;12.340;2023-04-20T02:30:35;86706.06;;;8.67;56.27
21623;BME280;10973;46.706;12.340;2023-04-20T02:33:03;86700.44;;;8.65;56.28
21623;BME280;10973;46.706;12.340;2023-04-20T02:35:30;86705.69;;;8.65;56.21
21623;BME280;10973;46.706;12.340;2023-04-20T02:37:58;86708.66;;;8.63;56.31
21623;BME280;10973;46.706;12.340;2023-04-20T02:40:26;86710.56;;;8.63;56.90
21623;BME280;10973;46.706;12.340;2023-04-20T02:42:53;86700.03;;;8.59;56.63
21623;BME280;10973;46.706;12.340;2023-04-20T02:45:20;86704.91;;;8.47;57.14
21623;BME280;10973;46.706;12.340;2023-04-20T02:47:50;86706.41;;;8.48;56.86
21623;BME280;10973;46.706;12.340;2023-04-20T02:50:17;86701.91;;;8.48;56.92
21623;BME280;10973;46.706;12.340;2023-04-20T02:52:45;86704.91;;;8.50;56.94
21623;BME280;10973;46.706;12.340;2023-04-20T02:55:13;86698.91;;;8.46;57.07
21623;BME280;10973;46.706;12.340;2023-04-20T02:57:40;86695.16;;;8.40;57.22
21623;BME280;10973;46.706;12.340;2023-04-20T03:00:08;86695.91;;;8.44;57.42
21623;BME280;10973;46.706;12.340;2023-04-20T03:02:35;86700.41;;;8.44;57.59
21623;BME280;10973;46.706;12.340;2023-04-20T03:05:04;86707.16;;;8.48;57.50
21623;BME280;10973;46.706;12.340;2023-04-20T03:07:31;86700.03;;;8.42;57.47
21623;BME280;10973;46.706;12.340;2023-04-20T03:09:58;86700.78;;;8.35;57.33
21623;BME280;10973;46.706;12.340;2023-04-20T03:12:25;86696.66;;;8.45;56.54
21623;BME280;10973;46.706;12.340;2023-04-20T03:14:53;86701.91;;;8.48;56.74
21623;BME280;10973;46.706;12.340;2023-04-20T03:17:20;86705.66;;;8.47;56.70
21623;BME280;10973;46.706;12.340;2023-04-20T03:19:48;86701.91;;;8.48;57.31
21623;BME280;10973;46.706;12.340;2023-04-20T03:22:15;86700.41;;;8.51;57.10
21623;BME280;10973;46.706;12.340;2023-04-20T03:24:42;86698.91;;;8.46;57.13
21623;BME280;10973;46.706;12.340;2023-04-20T03:27:10;86699.66;;;8.50;56.72
21623;BME280;10973;46.706;12.340;2023-04-20T03:29:37;86705.66;;;8.51;56.81
21623;BME280;10973;46.706;12.340;2023-04-20T03:32:05;86706.41;;;8.55;57.08
21623;BME280;10973;46.706;12.340;2023-04-20T03:34:32;86700.03;;;8.56;57.15
21623;BME280;10973;46.706;12.340;2023-04-20T03:36:59;86698.91;;;8.57;57.08
21623;BME280;10973;46.706;12.340;2023-04-20T03:39:27;86696.66;;;8.52;56.79
21623;BME280;10973;46.706;12.340;2023-04-20T03:41:54;86700.41;;;8.54;56.67
21623;BME280;10973;46.706;12.340;2023-04-20T03:44:21;86698.53;;;8.55;56.57
21623;BME280;10973;46.706;12.340;2023-04-20T03:46:48;86692.16;;;8.52;56.52
21623;BME280;10973;46.706;12.340;2023-04-20T03:49:16;86701.91;;;8.55;56.11
21623;BME280;10973;46.706;12.340;2023-04-20T03:51:43;86697.41;;;8.56;55.84
21623;BME280;10973;46.706;12.340;2023-04-20T03:54:10;86705.31;;;8.56;56.16
21623;BME280;10973;46.706;12.340;2023-04-20T03:56:38;86702.28;;;8.50;56.49
21623;BME280;10973;46.706;12.340;2023-04-20T03:59:05;86707.16;;;8.41;56.81
21623;BME280;10973;46.706;12.340;2023-04-20T04:01:32;86711.28;;;8.42;56.60
21623;BME280;10973;46.706;12.340;2023-04-20T04:03:59;86708.66;;;8.42;56.86
21623;BME280;10973;46.706;12.340;2023-04-20T04:06:27;86709.78;;;8.41;57.08
21623;BME280;10973;46.706;12.340;2023-04-20T04:08:55;86719.53;;;8.44;57.36
21623;BME280;10973;46.706;12.340;2023-04-20T04:11:22;86708.28;;;8.44;57.64
21623;BME280;10973;46.706;12.340;2023-04-20T04:13:49;86715.03;;;8.41;57.78
21623;BME280;10973;46.706;12.340;2023-04-20T04:16:16;86711.63;;;8.34;58.04
21623;BME280;10973;46.706;12.340;2023-04-20T04:18:44;86714.63;;;8.32;58.04
21623;BME280;10973;46.706;12.340;2023-04-20T04:21:11;86707.50;;;8.33;58.15
21623;BME280;10973;46.706;12.340;2023-04-20T04:23:38;86712.75;;;8.33;58.47
21623;BME280;10973;46.706;12.340;2023-04-20T04:26:05;86721.03;;;8.31;58.53
21623;BME280;10973;46.706;12.340;2023-04-20T04:28:33;86719.13;;;8.28;58.44
21623;BME280;10973;46.706;12.340;2023-04-20T04:31:00;86719.50;;;8.30;58.02
21623;BME280;10973;46.706;12.340;2023-04-20T04:33:27;86720.63;;;8.33;57.74
21623;BME280;10973;46.706;12.340;2023-04-20T04:35:55;86722.13;;;8.30;57.62
21623;BME280;10973;46.706;12.340;2023-04-20T04:38:22;86718.38;;;8.28;57.48
21623;BME280;10973;46.706;12.340;2023-04-20T04:40:52;86712.38;;;8.27;57.42
21623;BME280;10973;46.706;12.340;2023-04-20T04:43:19;86727.38;;;8.27;57.46
21623;BME280;10973;46.706;12.340;2023-04-20T04:45:46;86721.38;;;8.26;57.35
21623;BME280;10973;46.706;12.340;2023-04-20T04:48:13;86722.47;;;8.25;57.20
21623;BME280;10973;46.706;12.340;2023-04-20T04:50:41;86724.38;;;8.28;57.17
21623;BME280;10973;46.706;12.340;2023-04-20T04:53:08;86719.84;;;8.25;57.37
21623;BME280;10973;46.706;12.340;2023-04-20T04:55:36;86726.63;;;8.26;57.29
21623;BME280;10973;46.706;12.340;2023-04-20T04:58:03;86724.75;;;8.27;57.26
21623;BME280;10973;46.706;12.340;2023-04-20T05:00:30;86724.72;;;8.23;57.47
21623;BME280;10973;46.706;12.340;2023-04-20T05:02:57;86730.31;;;8.18;57.51
21623;BME280;10973;46.706;12.340;2023-04-20T05:05:25;86723.94;;;8.12;57.75
21623;BME280;10973;46.706;12.340;2023-04-20T05:07:52;86723.19;;;8.15;57.92
21623;BME280;10973;46.706;12.340;2023-04-20T05:10:19;86729.19;;;8.16;58.27
21623;BME280;10973;46.706;12.340;2023-04-20T05:12:46;86732.56;;;8.16;58.43
21623;BME280;10973;46.706;12.340;2023-04-20T05:15:14;86728.06;;;8.17;58.38
21623;BME280;10973;46.706;12.340;2023-04-20T05:17:41;86731.81;;;8.19;58.35
21623;BME280;10973;46.706;12.340;2023-04-20T05:20:08;86726.56;;;8.19;58.28
21623;BME280;10973;46.706;12.340;2023-04-20T05:22:36;86731.81;;;8.19;58.46
21623;BME280;10973;46.706;12.340;2023-04-20T05:25:05;86731.81;;;8.23;58.26
21623;BME280;10973;46.706;12.340;2023-04-20T05:27:33;86731.88;;;8.26;58.52
21623;BME280;10973;46.706;12.340;2023-04-20T05:30:00;86738.63;;;8.27;58.55
21623;BME280;10973;46.706;12.340;2023-04-20T05:32:45;86737.50;;;8.28;58.41
21623;BME280;10973;46.706;12.340;2023-04-20T05:35:16;86741.63;;;8.33;58.27
21623;BME280;10973;46.706;12.340;2023-04-20T05:37:44;86739.41;;;8.31;58.55
21623;BME280;10973;46.706;12.340;2023-04-20T05:40:11;86741.63;;;8.36;58.20
21623;BME280;10973;46.706;12.340;2023-04-20T05:42:39;86734.13;;;8.38;58.03
21623;BME280;10973;46.706;12.340;2023-04-20T05:45:07;86734.53;;;8.40;58.24
21623;BME280;10973;46.706;12.340;2023-04-20T05:47:34;86736.41;;;8.43;57.97
21623;BME280;10973;46.706;12.340;2023-04-20T05:50:03;86734.53;;;8.40;57.79
21623;BME280;10973;46.706;12.340;2023-04-20T05:52:30;86733.78;;;8.43;57.76
21623;BME280;10973;46.706;12.340;2023-04-20T05:54:58;86733.41;;;8.45;57.92
21623;BME280;10973;46.706;12.340;2023-04-20T05:57:25;86739.03;;;8.43;57.86
21623;BME280;10973;46.706;12.340;2023-04-20T05:59:52;86738.25;;;8.43;57.50
21623;BME280;10973;46.706;12.340;2023-04-20T06:02:19;86741.28;;;8.41;58.00
21623;BME280;10973;46.706;12.340;2023-04-20T06:04:47;86746.53;;;8.38;58.15
21623;BME280;10973;46.706;12.340;2023-04-20T06:07:14;86752.13;;;8.36;58.41
21623;BME280;10973;46.706;12.340;2023-04-20T06:09:41;86749.91;;;8.42;58.19
21623;BME280;10973;46.706;12.340;2023-04-20T06:12:09;86744.66;;;8.45;58.11
21623;BME280;10973;46.706;12.340;2023-04-20T06:14:36;86746.16;;;8.50;57.91
21623;BME280;10973;46.706;12.340;2023-04-20T06:17:03;86749.91;;;8.52;57.77
21623;BME280;10973;46.706;12.340;2023-04-20T06:19:31;86746.19;;;8.53;57.52
21623;BME280;10973;46.706;12.340;2023-04-20T06:21:58;86743.94;;;8.55;57.43
21623;BME280;10973;46.706;12.340;2023-04-20T06:24:27;86758.16;;;8.33;57.92
21623;BME280;10973;46.706;12.340;2023-04-20T06:26:54;86754.38;;;8.34;57.53
21623;BME280;10973;46.706;12.340;2023-04-20T06:29:21;86751.41;;;8.39;57.68
21623;BME280;10973;46.706;12.340;2023-04-20T06:31:48;86754.78;;;8.43;57.69
21623;BME280;10973;46.706;12.340;2023-04-20T06:34:16;86757.75;;;8.35;57.46
21623;BME280;10973;46.706;12.340;2023-04-20T06:36:43;86762.97;;;8.24;57.79
21623;BME280;10973;46.706;12.340;2023-04-20T06:39:10;86763.75;;;8.28;57.83
21623;BME280;10973;46.706;12.340;2023-04-20T06:41:37;86765.66;;;8.31;57.91
21623;BME280;10973;46.706;12.340;2023-04-20T06:44:05;86767.13;;;8.29;58.05
21623;BME280;10973;46.706;12.340;2023-04-20T06:46:33;86769.00;;;8.32;58.32
21623;BME280;10973;46.706;12.340;2023-04-20T06:49:00;86768.25;;;8.38;58.30
21623;BME280;10973;46.706;12.340;2023-04-20T06:51:28;86771.25;;;8.37;58.36
21623;BME280;10973;46.706;12.340;2023-04-20T06:53:55;86768.66;;;8.40;58.13
21623;BME280;10973;46.706;12.340;2023-04-20T06:56:23;86771.66;;;8.39;57.91
21623;BME280;10973;46.706;12.340;2023-04-20T06:58:50;86770.53;;;8.43;57.89
21623;BME280;10973;46.706;12.340;2023-04-20T07:01:17;86779.16;;;8.47;58.02
21623;BME280;10973;46.706;12.340;2023-04-20T07:03:44;86776.53;;;8.47;58.16
21623;BME280;10973;46.706;12.340;2023-04-20T07:06:12;86776.56;;;8.51;58.08
21623;BME280;10973;46.706;12.340;2023-04-20T07:08:39;86772.41;;;8.50;58.09
21623;BME280;10973;46.706;12.340;2023-04-20T07:11:07;86781.44;;;8.52;58.12
21623;BME280;10973;46.706;12.340;2023-04-20T07:13:35;86779.91;;;8.48;57.93
21623;BME280;10973;46.706;12.340;2023-04-20T07:16:02;86770.88;;;8.38;58.26
21623;BME280;10973;46.706;12.340;2023-04-20T07:18:29;86776.91;;;8.46;58.52
21623;BME280;10973;46.706;12.340;2023-04-20T07:20:59;86779.19;;;8.51;58.59
21623;BME280;10973;46.706;12.340;2023-04-20T07:23:26;86778.06;;;8.55;58.40
21623;BME280;10973;46.706;12.340;2023-04-20T07:25:53;86779.19;;;8.58;58.27
21623;BME280;10973;46.706;12.340;2023-04-20T07:28:22;86776.94;;;8.60;58.17
21623;BME280;10973;46.706;12.340;2023-04-20T07:30:49;86790.44;;;8.66;57.89
21623;BME280;10973;46.706;12.340;2023-04-20T07:33:16;86784.06;;;8.49;58.03
21623;BME280;10973;46.706;12.340;2023-04-20T07:35:43;86794.91;;;8.47;58.10
21623;BME280;10973;46.706;12.340;2023-04-20T07:38:11;86794.13;;;8.33;58.17
21623;BME280;10973;46.706;12.340;2023-04-20T07:40:38;86796.25;;;8.13;58.43
21623;BME280;10973;46.706;12.340;2023-04-20T07:43:06;86794.81;;;8.19;58.47
21623;BME280;10973;46.706;12.340;2023-04-20T07:45:33;86797.09;;;8.24;58.51
21623;BME280;10973;46.706;12.340;2023-04-20T07:48:01;86807.22;;;8.29;58.60
21623;BME280;10973;46.706;12.340;2023-04-20T07:50:28;86797.13;;;8.35;58.42
21623;BME280;10973;46.706;12.340;2023-04-20T07:52:55;86805.78;;;8.42;58.42
21623;BME280;10973;46.706;12.340;2023-04-20T07:55:22;86805.78;;;8.42;58.18
21623;BME280;10973;46.706;12.340;2023-04-20T07:57:50;86812.88;;;8.38;58.43
21623;BME280;10973;46.706;12.340;2023-04-20T08:00:18;86813.28;;;8.44;58.40
21623;BME280;10973;46.706;12.340;2023-04-20T08:02:45;86808.78;;;8.37;58.70
21623;BME280;10973;46.706;12.340;2023-04-20T08:05:13;86811.41;;;8.41;58.67
21623;BME280;10973;46.706;12.340;2023-04-20T08:07:40;86806.88;;;8.34;58.94
21623;BME280;10973;46.706;12.340;2023-04-20T08:10:08;86817.44;;;8.45;58.84
21623;BME280;10973;46.706;12.340;2023-04-20T08:12:38;86819.31;;;8.48;58.61
21623;BME280;10973;46.706;12.340;2023-04-20T08:15:07;86818.16;;;8.42;58.60
21623;BME280;10973;46.706;12.340;2023-04-20T08:17:34;86824.56;;;8.51;58.82
21623;BME280;10973;46.706;12.340;2023-04-20T08:20:02;86819.69;;;8.50;58.62
21623;BME280;10973;46.706;12.340;2023-04-20T08:22:29;86824.94;;;8.57;58.61
21623;BME280;10973;46.706;12.340;2023-04-20T08:24:57;86822.69;;;8.59;58.51
21623;BME280;10973;46.706;12.340;2023-04-20T08:27:24;86820.84;;;8.56;58.39
21623;BME280;10973;46.706;12.340;2023-04-20T08:29:52;86829.44;;;8.56;59.05
21623;BME280;10973;46.706;12.340;2023-04-20T08:32:19;86830.22;;;8.53;59.25
21623;BME280;10973;46.706;12.340;2023-04-20T08:34:46;86828.72;;;8.59;59.01
21623;BME280;10973;46.706;12.340;2023-04-20T08:37:13;86832.09;;;8.60;58.80
21623;BME280;10973;46.706;12.340;2023-04-20T08:39:41;86830.50;;;8.34;58.42
21623;BME280;10973;46.706;12.340;2023-04-20T08:42:08;86830.84;;;8.29;58.84
21623;BME280;10973;46.706;12.340;2023-04-20T08:44:36;86832.28;;;8.16;58.53
21623;BME280;10973;46.706;12.340;2023-04-20T08:47:03;86840.53;;;8.18;58.97
21623;BME280;10973;46.706;12.340;2023-04-20T08:49:32;86840.53;;;8.18;59.33
21623;BME280;10973;46.706;12.340;2023-04-20T08:52:00;86831.19;;;8.24;59.62
21623;BME280;10973;46.706;12.340;2023-04-20T08:54:27;86836.09;;;8.26;59.45
21623;BME280;10973;46.706;12.340;2023-04-20T08:56:54;86841.34;;;8.26;59.23
21623;BME280;10973;46.706;12.340;2023-04-20T08:59:21;86842.06;;;8.23;59.36
21623;BME280;10973;46.706;12.340;2023-04-20T09:01:49;86845.81;;;8.22;59.71
21623;BME280;10973;46.706;12.340;2023-04-20T09:06:49;86845.34;;;8.06;59.58
21623;BME280;10973;46.706;12.340;2023-04-20T09:09:19;86852.09;;;8.03;59.79
21623;BME280;10973;46.706;12.340;2023-04-20T09:11:47;86856.19;;;8.01;60.10
21623;BME280;10973;46.706;12.340;2023-04-20T09:14:15;86848.41;;;8.18;60.18
21623;BME280;10973;46.706;12.340;2023-04-20T09:16:55;86858.63;;;8.27;59.97
21623;BME280;10973;46.706;12.340;2023-04-20T09:19:24;86858.09;;;8.07;59.78
21623;BME280;10973;46.706;12.340;2023-04-20T09:21:54;86856.53;;;7.96;59.56
21623;BME280;10973;46.706;12.340;2023-04-20T09:24:36;86857.28;;;7.96;59.56
21623;BME280;10973;46.706;12.340;2023-04-20T09:27:30;86855.44;;;7.97;59.82
21623;BME280;10973;46.706;12.340;2023-04-20T09:30:00;86861.44;;;7.97;60.19
21623;BME280;10973;46.706;12.340;2023-04-20T09:32:28;86854.72;;;8.07;59.80
21623;BME280;10973;46.706;12.340;2023-04-20T09:34:56;86857.41;;;8.17;60.08
21623;BME280;10973;46.706;12.340;2023-04-20T09:37:23;86857.09;;;8.29;59.92
21623;BME280;10973;46.706;12.340;2023-04-20T09:39:52;86849.97;;;8.26;60.02
21623;BME280;10973;46.706;12.340;2023-04-20T09:42:23;86854.53;;;8.43;59.79
21623;BME280;10973;46.706;12.340;2023-04-20T09:44:53;86849.66;;;8.45;59.58
21623;BME280;10973;46.706;12.340;2023-04-20T09:47:21;86852.66;;;8.47;59.78
21623;BME280;10973;46.706;12.340;2023-04-20T09:49:49;86853.88;;;8.60;59.44
21623;BME280;10973;46.706;12.340;2023-04-20T09:52:17;86858.34;;;8.56;59.57
21623;BME280;10973;46.706;12.340;2023-04-20T09:54:45;86844.84;;;8.58;59.01
21623;BME280;10973;46.706;12.340;2023-04-20T09:57:13;86849.34;;;8.61;59.36
21623;BME280;10973;46.706;12.340;2023-04-20T09:59:46;86856.50;;;8.71;59.38
21623;BME280;10973;46.706;12.340;2023-04-20T10:02:13;86864.41;;;8.78;59.19
21623;BME280;10973;46.706;12.340;2023-04-20T10:04:58;86855.41;;;8.76;59.02
21623;BME280;10973;46.706;12.340;2023-04-20T10:07:31;86856.53;;;8.82;58.78
21623;BME280;10973;46.706;12.340;2023-04-20T10:10:12;86863.69;;;8.85;59.15
21623;BME280;10973;46.706;12.340;2023-04-20T10:15:39;86858.44;;;8.92;58.84
21623;BME280;10973;46.706;12.340;2023-04-20T10:18:21;86863.34;;;8.97;58.23
21623;BME280;10973;46.706;12.340;2023-04-20T10:21:02;86858.81;;;8.94;58.56
21623;BME280;10973;46.706;12.340;2023-04-20T10:23:30;86866.72;;;9.01;59.13
21623;BME280;10973;46.706;12.340;2023-04-20T10:25:59;86854.34;;;9.05;59.25
21623;BME280;10973;46.706;12.340;2023-04-20T10:28:44;86858.84;;;9.08;59.25
21623;BME280;10973;46.706;12.340;2023-04-20T10:31:15;86861.88;;;9.24;58.96
21623;BME280;10973;46.706;12.340;2023-04-20T10:33:55;86855.47;;;9.25;58.79
21623;BME280;10973;46.706;12.340;2023-04-20T10:36:34;86849.47;;;9.31;58.17
21623;BME280;10973;46.706;12.340;2023-04-20T10:39:17;86853.63;;;9.36;58.18
21623;BME280;10973;46.706;12.340;2023-04-20T10:42:04;86849.50;;;9.49;57.64
21623;BME280;10973;46.706;12.340;2023-04-20T10:44:32;86843.84;;;9.61;57.58
21623;BME280;10973;46.706;12.340;2023-04-20T10:47:00;86847.22;;;9.72;57.66
21623;BME280;10973;46.706;12.340;2023-04-20T10:49:28;86847.59;;;9.88;58.04
21623;BME280;10973;46.706;12.340;2023-04-20T10:51:56;86849.81;;;10.00;56.91
21623;BME280;10973;46.706;12.340;2023-04-20T10:54:24;86832.88;;;10.08;55.17
21623;BME280;10973;46.706;12.340;2023-04-20T10:56:52;86845.31;;;10.19;55.84
21623;BME280;10973;46.706;12.340;2023-04-20T10:59:22;86836.66;;;10.22;55.43
21623;BME280;10973;46.706;12.340;2023-04-20T11:01:51;86830.22;;;10.30;55.36
21623;BME280;10973;46.706;12.340;2023-04-20T11:04:33;86837.72;;;10.38;54.77
21623;BME280;10973;46.706;12.340;2023-04-20T11:07:05;86833.97;;;10.32;55.24
21623;BME280;10973;46.706;12.340;2023-04-20T11:09:34;86839.97;;;10.47;54.41
21623;BME280;10973;46.706;12.340;2023-04-20T11:12:07;86839.22;;;10.46;54.33
21623;BME280;10973;46.706;12.340;2023-04-20T11:14:48;86838.50;;;10.35;53.50
21623;BME280;10973;46.706;12.340;2023-04-20T11:17:17;86846.75;;;10.37;53.81
21623;BME280;10973;46.706;12.340;2023-04-20T11:19:44;86850.94;;;10.28;53.78
21623;BME280;10973;46.706;12.340;2023-04-20T11:22:21;86843.75;;;10.39;53.71
21623;BME280;10973;46.706;12.340;2023-04-20T11:24:48;86841.81;;;10.50;54.04
21623;BME280;10973;46.706;12.340;2023-04-20T11:27:20;86838.81;;;10.51;54.06
21623;BME280;10973;46.706;12.340;2023-04-20T11:29:56;86837.69;;;10.52;53.96
21623;BME280;10973;46.706;12.340;2023-04-20T11:32:25;86835.06;;;10.49;54.51
21623;BME280;10973;46.706;12.340;2023-04-20T11:35:03;86839.16;;;10.57;54.39
21623;BME280;10973;46.706;12.340;2023-04-20T11:37:45;86840.31;;;10.56;54.05
21623;BME280;10973;46.706;12.340;2023-04-20T11:40:15;86831.66;;;10.52;54.35
21623;BME280;10973;46.706;12.340;2023-04-20T11:42:43;86835.03;;;10.56;53.87
21623;BME280;10973;46.706;12.340;2023-04-20T11:45:10;86838.00;;;10.65;53.97
21623;BME280;10973;46.706;12.340;2023-04-20T11:47:38;86839.06;;;10.82;54.63
21623;BME280;10973;46.706;12.340;2023-04-20T11:50:07;86840.53;;;10.86;53.77
21623;BME280;10973;46.706;12.340;2023-04-20T11:52:34;86849.19;;;10.87;53.34
21623;BME280;10973;46.706;12.340;2023-04-20T11:55:09;86848.84;;;10.85;52.96
21623;BME280;10973;46.706;12.340;2023-04-20T11:57:36;86845.09;;;10.82;52.88
21623;BME280;10973;46.706;12.340;2023-04-20T12:00:05;86845.47;;;10.81;52.87
21623;BME280;10973;46.706;12.340;2023-04-20T12:02:32;86849.63;;;10.78;52.81
21623;BME280;10973;46.706;12.340;2023-04-20T12:05:03;86853.00;;;10.79;53.11
21623;BME280;10973;46.706;12.340;2023-04-20T12:07:31;86855.28;;;10.77;53.28
21623;BME280;10973;46.706;12.340;2023-04-20T12:09:58;86857.50;;;10.82;53.17
21623;BME280;10973;46.706;12.340;2023-04-20T12:12:26;86853.34;;;10.88;53.83
21623;BME280;10973;46.706;12.340;2023-04-20T12:14:53;86850.28;;;10.93;53.59
21623;BME280;10973;46.706;12.340;2023-04-20T12:17:20;86847.53;;;11.17;53.68
21623;BME280;10973;46.706;12.340;2023-04-20T12:19:48;86845.97;;;11.27;53.35
21623;BME280;10973;46.706;12.340;2023-04-20T12:22:15;86851.59;;;11.29;52.87
21623;BME280;10973;46.706;12.340;2023-04-20T12:24:42;86846.69;;;11.34;54.07
21623;BME280;10973;46.706;12.340;2023-04-20T12:27:10;86839.47;;;11.38;53.27
21623;BME280;10973;46.706;12.340;2023-04-20T12:29:37;86828.91;;;11.42;54.21
21623;BME280;10973;46.706;12.340;2023-04-20T12:32:04;86835.28;;;11.48;53.94
21623;BME280;10973;46.706;12.340;2023-04-20T12:34:32;86843.94;;;11.48;53.21
21623;BME280;10973;46.706;12.340;2023-04-20T12:36:59;86844.00;;;11.41;53.41
21623;BME280;10973;46.706;12.340;2023-04-20T12:39:26;86848.19;;;11.35;53.31
21623;BME280;10973;46.706;12.340;2023-04-20T12:41:54;86844.75;;;11.38;53.42
21623;BME280;10973;46.706;12.340;2023-04-20T12:44:21;86839.13;;;11.40;53.24
21623;BME280;10973;46.706;12.340;2023-04-20T12:46:48;86837.22;;;11.40;52.44
21623;BME280;10973;46.706;12.340;2023-04-20T12:49:16;86839.44;;;11.45;52.39
21623;BME280;10973;46.706;12.340;2023-04-20T12:51:44;86835.34;;;11.37;51.89
21623;BME280;10973;46.706;12.340;2023-04-20T12:54:11;86837.22;;;11.40;52.46
21623;BME280;10973;46.706;12.340;2023-04-20T12:56:39;86837.94;;;11.44;52.47
21623;BME280;10973;46.706;12.340;2023-04-20T12:59:06;86844.34;;;11.43;51.70
21623;BME280;10973;46.706;12.340;2023-04-20T13:01:33;86841.75;;;11.40;51.67
21623;BME280;10973;46.706;12.340;2023-04-20T13:04:01;86840.63;;;11.37;51.66
21623;BME280;10973;46.706;12.340;2023-04-20T13:06:29;86849.66;;;11.36;52.02
21623;BME280;10973;46.706;12.340;2023-04-20T13:08:56;86841.44;;;11.31;51.81